createdAt,value
2018-09-24T00:02:13.080Z,8.78
2018-09-24T00:04:41.510Z,8.77
2018-09-24T00:07:09.909Z,8.75
2018-09-24T00:09:38.225Z,8.74
2018-09-24T00:12:06.592Z,8.73
2018-09-24T00:14:34.961Z,8.72
2018-09-24T00:17:03.436Z,8.70
2018-09-24T00:19:32.799Z,8.66
2018-09-24T00:22:01.116Z,8.61
2018-09-24T00:24:29.457Z,8.60
2018-09-24T00:26:57.913Z,8.60
2018-09-24T00:29:26.281Z,8.58
2018-09-24T00:31:54.681Z,8.57
2018-09-24T00:34:23.073Z,8.55
2018-09-24T00:36:51.503Z,8.54
2018-09-24T00:39:19.861Z,8.52
2018-09-24T00:41:48.164Z,8.49
2018-09-24T00:44:16.605Z,8.47
2018-09-24T00:46:45.113Z,8.44
2018-09-24T00:49:13.475Z,8.43
2018-09-24T00:51:41.795Z,8.41
2018-09-24T00:54:10.172Z,8.39
2018-09-24T00:56:38.538Z,8.36
2018-09-24T00:59:06.886Z,8.36
2018-09-24T01:01:35.272Z,8.36
2018-09-24T01:04:03.651Z,8.38
2018-09-24T01:06:32.025Z,8.39
2018-09-24T01:09:00.394Z,8.37
2018-09-24T01:11:28.746Z,8.38
2018-09-24T01:13:57.130Z,8.39
2018-09-24T01:16:25.522Z,8.39
2018-09-24T01:18:53.865Z,8.38
2018-09-24T01:21:22.233Z,8.36
2018-09-24T01:23:50.603Z,8.36
2018-09-24T01:26:19.004Z,8.35
2018-09-24T01:28:47.416Z,8.34
2018-09-24T01:31:15.842Z,8.32
2018-09-24T01:33:44.288Z,8.29
2018-09-24T01:36:12.653Z,8.30
2018-09-24T01:38:42.195Z,8.31
2018-09-24T01:41:10.601Z,8.29
2018-09-24T01:43:38.949Z,8.24
2018-09-24T01:46:07.337Z,8.24
2018-09-24T01:48:36.000Z,8.23
2018-09-24T01:51:04.376Z,8.24
2018-09-24T01:53:33.757Z,8.22
2018-09-24T01:56:02.727Z,8.22
2018-09-24T01:58:32.940Z,8.20
2018-09-24T02:01:01.329Z,8.21
2018-09-24T02:03:33.674Z,8.20
2018-09-24T02:06:02.095Z,8.18
2018-09-24T02:08:30.628Z,8.18
2018-09-24T02:10:59.030Z,8.18
2018-09-24T02:13:27.422Z,8.21
2018-09-24T02:15:55.798Z,8.19
2018-09-24T02:18:24.180Z,8.18
2018-09-24T02:20:52.856Z,8.20
2018-09-24T02:23:21.219Z,8.17
2018-09-24T02:25:49.583Z,8.19
2018-09-24T02:28:17.967Z,8.19
2018-09-24T02:30:46.352Z,8.16
2018-09-24T02:33:14.665Z,8.19
2018-09-24T02:35:48.519Z,8.20
2018-09-24T02:38:17.523Z,8.19
2018-09-24T02:40:45.978Z,8.21
2018-09-24T02:43:14.504Z,8.21
2018-09-24T02:45:42.892Z,8.20
2018-09-24T02:48:11.246Z,8.19
2018-09-24T02:50:41.003Z,8.17
2018-09-24T02:53:09.912Z,8.15
2018-09-24T02:55:38.280Z,8.11
2018-09-24T02:58:06.685Z,8.10
2018-09-24T03:00:35.063Z,8.10
2018-09-24T03:03:11.022Z,8.08
2018-09-24T03:05:39.389Z,8.10
2018-09-24T03:08:09.214Z,8.09
2018-09-24T03:10:38.019Z,8.10
2018-09-24T03:13:06.648Z,8.09
2018-09-24T03:15:38.360Z,8.07
2018-09-24T03:18:07.411Z,8.07
2018-09-24T03:20:38.109Z,8.05
2018-09-24T03:23:06.844Z,8.02
2018-09-24T03:25:35.203Z,7.98
2018-09-24T03:28:03.589Z,7.97
2018-09-24T03:30:33.058Z,7.96
2018-09-24T03:33:01.525Z,7.96
2018-09-24T03:35:29.988Z,7.95
2018-09-24T03:37:58.381Z,7.94
2018-09-24T03:40:27.957Z,7.95
2018-09-24T03:42:56.993Z,7.95
2018-09-24T03:45:25.663Z,7.96
2018-09-24T03:47:54.020Z,7.93
2018-09-24T03:50:22.458Z,7.94
2018-09-24T03:52:50.858Z,7.94
2018-09-24T03:55:19.201Z,7.91
2018-09-24T03:57:47.874Z,7.88
2018-09-24T04:00:16.239Z,7.86
2018-09-24T04:02:44.615Z,7.85
2018-09-24T04:05:18.206Z,7.81
2018-09-24T04:07:51.742Z,7.81
2018-09-24T04:10:26.706Z,7.81
2018-09-24T04:13:00.258Z,7.80
2018-09-24T04:15:34.046Z,7.78
2018-09-24T04:18:07.829Z,7.73
2018-09-24T04:20:41.489Z,7.71
2018-09-24T04:23:15.343Z,7.70
2018-09-24T04:25:48.888Z,7.70
2018-09-24T04:28:22.608Z,7.70
2018-09-24T04:30:56.417Z,7.68
2018-09-24T04:33:30.107Z,7.66
2018-09-24T04:36:03.630Z,7.65
2018-09-24T04:38:37.323Z,7.63
2018-09-24T04:41:11.161Z,7.61
2018-09-24T04:43:45.866Z,7.59
2018-09-24T04:46:19.691Z,7.57
2018-09-24T04:48:53.371Z,7.55
2018-09-24T04:51:26.905Z,7.53
2018-09-24T04:54:00.540Z,7.52
2018-09-24T04:56:33.999Z,7.53
2018-09-24T04:59:07.854Z,7.61
2018-09-24T05:01:41.900Z,7.65
2018-09-24T05:04:15.611Z,7.68
2018-09-24T05:06:49.092Z,7.73
2018-09-24T05:09:22.648Z,7.75
2018-09-24T05:11:56.306Z,7.77
2018-09-24T05:14:30.169Z,7.78
2018-09-24T05:17:04.051Z,7.76
2018-09-24T05:19:37.717Z,7.76
2018-09-24T05:22:11.244Z,7.78
2018-09-24T05:24:44.896Z,7.80
2018-09-24T05:27:18.492Z,7.80
2018-09-24T05:29:52.313Z,7.83
2018-09-24T05:32:26.153Z,7.82
2018-09-24T05:35:01.068Z,7.79
2018-09-24T05:37:34.573Z,7.83
2018-09-24T05:40:08.186Z,7.82
2018-09-24T05:42:42.238Z,7.87
2018-09-24T05:45:15.862Z,7.91
2018-09-24T05:47:49.727Z,7.93
2018-09-24T05:50:23.324Z,7.95
2018-09-24T05:52:57.083Z,7.98
2018-09-24T05:55:30.837Z,7.98
2018-09-24T05:58:04.513Z,8.01
2018-09-24T06:00:38.178Z,8.04
2018-09-24T06:03:12.069Z,8.08
2018-09-24T06:05:52.170Z,8.12
2018-09-24T06:15:34.525Z,8.21
2018-09-24T06:18:08.002Z,8.25
2018-09-24T06:20:41.826Z,8.28
2018-09-24T06:23:15.541Z,8.31
2018-09-24T06:25:49.191Z,8.35
2018-09-24T06:28:23.102Z,8.41
2018-09-24T06:30:56.691Z,8.45
2018-09-24T06:33:30.435Z,8.50
2018-09-24T06:36:03.938Z,8.55
2018-09-24T06:38:37.788Z,8.59
2018-09-24T06:41:11.928Z,8.64
2018-09-24T06:43:45.515Z,8.68
2018-09-24T06:46:19.356Z,8.72
2018-09-24T06:48:52.952Z,8.76
2018-09-24T06:51:26.448Z,8.80
2018-09-24T06:54:00.026Z,8.82
2018-09-24T06:56:33.656Z,8.86
2018-09-24T06:59:07.160Z,8.91
2018-09-24T07:01:41.810Z,8.97
2018-09-24T07:04:15.509Z,9.02
2018-09-24T07:06:49.235Z,9.06
2018-09-24T07:09:22.886Z,9.06
2018-09-24T07:11:56.720Z,9.10
2018-09-24T07:14:31.088Z,9.14
2018-09-24T07:17:04.829Z,9.15
2018-09-24T07:19:38.333Z,9.19
2018-09-24T07:22:12.034Z,9.26
2018-09-24T07:24:45.879Z,9.30
2018-09-24T07:27:19.543Z,9.39
2018-09-24T07:29:53.279Z,9.44
2018-09-24T07:32:27.059Z,9.49
2018-09-24T07:35:00.805Z,9.53
2018-09-24T07:37:34.397Z,9.57
2018-09-24T07:40:08.831Z,9.62
2018-09-24T07:42:42.324Z,9.67
2018-09-24T07:45:15.819Z,9.74
2018-09-24T07:47:49.588Z,9.79
2018-09-24T07:50:23.281Z,9.85
2018-09-24T07:52:56.794Z,9.91
2018-09-24T07:55:30.528Z,10.00
2018-09-24T07:58:04.834Z,10.02
2018-09-24T08:00:38.580Z,10.05
2018-09-24T08:03:12.132Z,10.08
2018-09-24T08:05:45.712Z,10.13
2018-09-24T08:08:19.524Z,10.17
2018-09-24T08:10:53.093Z,10.22
2018-09-24T08:13:26.904Z,10.29
2018-09-24T08:16:00.625Z,10.36
2018-09-24T08:18:34.324Z,10.45
2018-09-24T08:21:08.066Z,10.51
2018-09-24T08:23:41.724Z,10.59
2018-09-24T08:26:15.537Z,10.65
2018-09-24T08:28:49.253Z,10.70
2018-09-24T08:31:22.818Z,10.73
2018-09-24T08:33:56.402Z,10.77
2018-09-24T08:36:30.135Z,10.82
2018-09-24T08:39:03.980Z,10.86
2018-09-24T08:41:37.637Z,10.92
2018-09-24T08:44:11.307Z,10.97
2018-09-24T08:46:45.074Z,11.04
2018-09-24T08:49:18.860Z,11.11
2018-09-24T08:51:52.734Z,11.18
2018-09-24T08:54:26.375Z,11.26
2018-09-24T08:56:59.981Z,11.32
2018-09-24T08:59:34.221Z,11.38
2018-09-24T09:02:07.895Z,11.40
2018-09-24T09:04:41.717Z,11.41
2018-09-24T09:07:15.367Z,11.49
2018-09-24T09:09:48.880Z,11.56
2018-09-24T09:12:22.693Z,11.67
2018-09-24T09:14:57.348Z,11.75
2018-09-24T09:17:31.118Z,11.74
2018-09-24T09:20:04.609Z,11.75
2018-09-24T09:22:38.319Z,11.76
2018-09-24T09:25:12.143Z,11.76
2018-09-24T09:27:45.700Z,11.80
2018-09-24T09:30:19.478Z,11.89
2018-09-24T09:32:53.257Z,11.94
2018-09-24T09:35:27.067Z,11.97
2018-09-24T09:38:00.697Z,12.02
2018-09-24T09:40:34.275Z,12.10
2018-09-24T09:43:07.906Z,12.21
2018-09-24T09:45:41.559Z,12.29
2018-09-24T09:48:15.162Z,12.36
2018-09-24T09:50:48.770Z,12.44
2018-09-24T09:53:22.590Z,12.47
2018-09-24T09:55:56.157Z,12.60
2018-09-24T09:58:29.829Z,12.75
2018-09-24T10:01:03.342Z,12.88
2018-09-24T10:03:36.938Z,13.02
2018-09-24T10:06:10.724Z,13.12
2018-09-24T10:08:44.417Z,13.18
2018-09-24T10:11:18.174Z,13.32
2018-09-24T10:13:51.867Z,13.46
2018-09-24T10:16:25.685Z,13.60
2018-09-24T10:18:59.416Z,13.65
2018-09-24T10:21:33.233Z,13.67
2018-09-24T10:24:06.909Z,13.68
2018-09-24T10:26:40.555Z,13.55
2018-09-24T10:29:14.086Z,13.49
2018-09-24T10:31:47.607Z,13.47
2018-09-24T10:34:21.241Z,13.57
2018-09-24T10:36:54.843Z,13.65
2018-09-24T10:39:28.553Z,13.75
2018-09-24T10:42:02.072Z,13.92
2018-09-24T10:44:35.861Z,14.06
2018-09-24T10:47:09.507Z,14.21
2018-09-24T10:49:43.265Z,14.38
2018-09-24T10:52:17.038Z,14.38
2018-09-24T10:54:50.575Z,14.35
2018-09-24T10:57:24.229Z,14.25
2018-09-24T10:59:57.885Z,14.18
2018-09-24T11:02:31.522Z,14.04
2018-09-24T11:05:05.136Z,13.98
2018-09-24T11:07:38.825Z,14.01
2018-09-24T11:10:12.656Z,14.02
2018-09-24T11:12:46.279Z,13.90
2018-09-24T11:15:20.047Z,13.93
2018-09-24T11:17:53.897Z,14.06
2018-09-24T11:20:28.785Z,14.14
2018-09-24T11:23:02.520Z,14.27
2018-09-24T11:25:36.048Z,14.23
2018-09-24T11:28:10.116Z,14.06
2018-09-24T11:30:43.817Z,13.98
2018-09-24T11:33:17.575Z,13.71
2018-09-24T11:35:51.272Z,13.56
2018-09-24T11:38:25.039Z,13.54
2018-09-24T11:40:59.479Z,13.61
2018-09-24T11:43:33.261Z,13.75
2018-09-24T11:46:06.851Z,13.91
2018-09-24T11:48:40.491Z,14.11
2018-09-24T11:51:14.769Z,14.37
2018-09-24T11:53:48.334Z,14.45
2018-09-24T11:56:22.118Z,14.33
2018-09-24T11:58:55.580Z,13.21
2018-09-24T12:01:30.482Z,12.17
2018-09-24T12:04:04.226Z,11.31
2018-09-24T12:06:37.855Z,10.90
2018-09-24T12:09:13.896Z,10.55
2018-09-24T12:11:48.051Z,10.42
2018-09-24T12:14:21.895Z,10.47
2018-09-24T12:16:55.597Z,10.66
2018-09-24T12:19:29.433Z,10.79
2018-09-24T12:22:03.091Z,10.85
2018-09-24T12:24:36.830Z,10.91
2018-09-24T12:27:10.616Z,11.01
2018-09-24T12:29:44.359Z,11.11
2018-09-24T12:32:18.146Z,11.25
2018-09-24T12:34:51.823Z,11.34
2018-09-24T12:37:25.588Z,11.38
2018-09-24T12:39:59.225Z,11.41
2018-09-24T12:42:33.969Z,11.46
2018-09-24T12:45:07.544Z,11.60
2018-09-24T12:47:41.314Z,11.73
2018-09-24T12:50:15.066Z,11.75
2018-09-24T12:52:48.777Z,11.78
2018-09-24T12:55:22.353Z,11.73
2018-09-24T12:57:56.089Z,11.69
2018-09-24T13:00:30.050Z,11.67
2018-09-24T13:03:03.676Z,11.69
2018-09-24T13:05:37.865Z,11.73
2018-09-24T13:08:11.614Z,11.79
2018-09-24T13:10:45.273Z,11.86
2018-09-24T13:13:19.019Z,11.95
2018-09-24T13:15:52.827Z,12.01
2018-09-24T13:18:26.361Z,12.08
2018-09-24T13:21:00.183Z,12.12
2018-09-24T13:23:34.489Z,12.18
2018-09-24T13:26:08.220Z,12.24
2018-09-24T13:28:42.219Z,12.46
2018-09-24T13:31:15.972Z,12.62
2018-09-24T13:33:49.508Z,12.75
2018-09-24T13:36:23.143Z,12.86
2018-09-24T13:38:56.773Z,12.92
2018-09-24T13:41:30.478Z,12.99
2018-09-24T13:44:04.124Z,13.02
2018-09-24T13:46:37.913Z,13.00
2018-09-24T13:49:11.659Z,12.96
2018-09-24T13:51:45.487Z,12.94
2018-09-24T13:54:19.173Z,12.89
2018-09-24T13:56:52.895Z,12.85
2018-09-24T13:59:26.899Z,12.80
2018-09-24T14:02:00.600Z,12.67
2018-09-24T14:04:34.312Z,12.58
2018-09-24T14:07:08.112Z,12.47
2018-09-24T14:09:41.883Z,12.36
2018-09-24T14:12:16.007Z,12.29
2018-09-24T14:14:49.588Z,12.25
2018-09-24T14:17:23.233Z,12.23
2018-09-24T14:19:57.055Z,12.28
2018-09-24T14:22:30.775Z,12.35
2018-09-24T14:25:04.556Z,12.43
2018-09-24T14:27:38.155Z,12.53
2018-09-24T14:30:12.102Z,12.68
2018-09-24T14:32:45.618Z,12.80
2018-09-24T14:35:19.359Z,12.90
2018-09-24T14:37:53.002Z,12.90
2018-09-24T14:40:26.644Z,12.91
2018-09-24T14:43:00.499Z,12.94
2018-09-24T14:45:34.267Z,12.94
2018-09-24T14:48:08.103Z,12.95
2018-09-24T14:50:41.824Z,12.90
2018-09-24T14:53:15.587Z,12.96
2018-09-24T14:55:49.296Z,13.04
2018-09-24T14:58:22.922Z,13.12
2018-09-24T15:00:57.283Z,13.21
2018-09-24T15:03:30.788Z,13.40
2018-09-24T15:06:04.516Z,13.53
2018-09-24T15:08:38.206Z,13.60
2018-09-24T15:11:12.062Z,13.72
2018-09-24T15:13:45.586Z,13.73
2018-09-24T15:16:19.348Z,13.72
2018-09-24T15:18:53.033Z,13.69
2018-09-24T15:21:26.882Z,13.68
2018-09-24T15:24:00.377Z,13.76
2018-09-24T15:26:33.909Z,13.80
2018-09-24T15:29:07.935Z,13.82
2018-09-24T15:31:41.534Z,13.77
2018-09-24T15:34:15.248Z,13.59
2018-09-24T15:36:49.003Z,13.37
2018-09-24T15:39:22.836Z,13.21
2018-09-24T15:41:56.489Z,13.13
2018-09-24T15:44:30.258Z,13.01
2018-09-24T15:47:03.753Z,12.99
2018-09-24T15:49:37.496Z,13.06
2018-09-24T15:52:11.307Z,12.85
2018-09-24T15:54:44.796Z,12.02
2018-09-24T15:57:18.468Z,11.68
2018-09-24T15:59:52.043Z,11.51
2018-09-24T16:02:25.586Z,11.50
2018-09-24T16:04:59.460Z,11.47
2018-09-24T16:07:33.092Z,11.39
2018-09-24T16:10:06.713Z,11.33
2018-09-24T16:12:40.286Z,11.31
2018-09-24T16:15:13.966Z,11.26
2018-09-24T16:17:47.576Z,11.23
2018-09-24T16:20:21.448Z,11.20
2018-09-24T16:22:54.896Z,11.17
2018-09-24T16:25:28.602Z,11.16
2018-09-24T16:28:02.439Z,11.16
2018-09-24T16:30:35.910Z,11.18
2018-09-24T16:33:09.474Z,11.23
2018-09-24T16:35:43.270Z,11.20
2018-09-24T16:38:16.995Z,11.18
2018-09-24T16:40:50.856Z,11.13
2018-09-24T16:43:25.873Z,11.09
2018-09-24T16:45:59.429Z,11.07
2018-09-24T16:48:33.167Z,11.08
2018-09-24T16:51:06.971Z,11.09
2018-09-24T16:53:40.441Z,11.07
2018-09-24T16:56:14.043Z,11.06
2018-09-24T16:58:47.794Z,11.06
2018-09-24T17:01:22.507Z,11.05
2018-09-24T17:03:56.086Z,11.06
2018-09-24T17:06:29.924Z,11.00
2018-09-24T17:09:03.557Z,10.93
2018-09-24T17:11:37.218Z,10.86
2018-09-24T17:14:10.834Z,10.80
2018-09-24T17:16:44.551Z,10.76
2018-09-24T17:19:18.235Z,10.69
2018-09-24T17:21:51.857Z,10.62
2018-09-24T17:24:25.611Z,10.59
2018-09-24T17:26:59.336Z,10.54
2018-09-24T17:29:32.960Z,10.49
2018-09-24T17:32:06.639Z,10.42
2018-09-24T17:34:40.202Z,10.37
2018-09-24T17:37:13.839Z,10.31
2018-09-24T17:39:47.551Z,10.27
2018-09-24T17:42:21.259Z,10.23
2018-09-24T17:44:55.008Z,10.20
2018-09-24T17:47:28.766Z,10.13
2018-09-24T17:50:03.743Z,10.07
2018-09-24T17:52:37.445Z,10.04
2018-09-24T17:55:10.876Z,10.01
2018-09-24T17:57:44.477Z,9.98
2018-09-24T18:00:18.175Z,9.96
2018-09-24T18:02:51.705Z,9.92
2018-09-24T18:05:25.496Z,9.90
2018-09-24T18:07:59.178Z,9.89
2018-09-24T18:10:32.951Z,9.89
2018-09-24T18:13:06.757Z,9.88
2018-09-24T18:15:43.592Z,9.88
2018-09-24T18:18:17.094Z,9.87
2018-09-24T18:20:50.651Z,9.87
2018-09-24T18:23:24.526Z,9.87
2018-09-24T18:25:58.114Z,9.88
2018-09-24T18:28:31.814Z,9.89
2018-09-24T18:31:05.510Z,9.87
2018-09-24T18:33:39.067Z,9.84
2018-09-24T18:36:13.079Z,9.84
2018-09-24T18:38:46.531Z,9.77
2018-09-24T18:41:20.248Z,9.71
2018-09-24T18:43:53.977Z,9.66
2018-09-24T18:46:27.924Z,9.61
2018-09-24T18:49:01.696Z,9.57
2018-09-24T18:51:35.444Z,9.52
2018-09-24T18:54:10.150Z,9.46
2018-09-24T18:56:43.709Z,9.43
2018-09-24T18:59:17.187Z,9.37
2018-09-24T19:01:50.767Z,9.34
2018-09-24T19:04:24.388Z,9.35
2018-09-24T19:06:57.991Z,9.34
2018-09-24T19:09:31.591Z,9.33
2018-09-24T19:12:06.240Z,9.32
2018-09-24T19:14:40.013Z,9.31
2018-09-24T19:17:13.682Z,9.28
2018-09-24T19:19:47.399Z,9.24
2018-09-24T19:22:20.870Z,9.17
2018-09-24T19:24:54.605Z,9.12
2018-09-24T19:27:28.049Z,9.07
2018-09-24T19:30:03.808Z,9.05
2018-09-24T19:32:37.544Z,9.04
2018-09-24T19:35:11.044Z,9.00
2018-09-24T19:37:44.756Z,8.96
2018-09-24T19:40:18.366Z,8.95
2018-09-24T19:42:52.090Z,8.93
2018-09-24T19:45:25.608Z,8.91
2018-09-24T19:47:59.328Z,8.91
2018-09-24T19:50:33.105Z,8.89
2018-09-24T19:53:07.257Z,8.87
2018-09-24T19:55:41.063Z,8.82
2018-09-24T19:58:14.811Z,8.75
2018-09-24T20:00:48.505Z,8.69
2018-09-24T20:03:22.071Z,8.65
2018-09-24T20:05:55.541Z,8.63
2018-09-24T20:08:29.212Z,8.60
2018-09-24T20:11:03.133Z,8.59
2018-09-24T20:13:36.946Z,8.56
2018-09-24T20:16:10.582Z,8.55
2018-09-24T20:18:44.278Z,8.55
2018-09-24T20:21:17.801Z,8.55
2018-09-24T20:23:51.351Z,8.52
2018-09-24T20:26:24.886Z,8.49
2018-09-24T20:28:58.549Z,8.45
2018-09-24T20:31:32.245Z,8.42
2018-09-24T20:34:06.043Z,8.44
2018-09-24T20:36:39.533Z,8.44
2018-09-24T20:39:13.849Z,8.43
2018-09-24T20:41:47.919Z,8.44
2018-09-24T20:44:21.742Z,8.43
2018-09-24T20:46:55.356Z,8.42
2018-09-24T20:49:28.871Z,8.39
2018-09-24T20:52:02.531Z,8.39
2018-09-24T20:54:36.319Z,8.36
2018-09-24T20:57:11.009Z,8.33
2018-09-24T20:59:44.863Z,8.31
2018-09-24T21:02:18.485Z,8.32
2018-09-24T21:04:52.211Z,8.32
2018-09-24T21:07:25.946Z,8.28
2018-09-24T21:09:59.524Z,8.24
2018-09-24T21:12:33.361Z,8.21
2018-09-24T21:15:07.005Z,8.19
2018-09-24T21:17:40.499Z,8.18
2018-09-24T21:20:14.260Z,8.19
2018-09-24T21:22:47.870Z,8.19
2018-09-24T21:25:21.468Z,8.19
2018-09-24T21:27:55.071Z,8.16
2018-09-24T21:30:28.803Z,8.14
2018-09-24T21:33:03.242Z,8.12
2018-09-24T21:35:37.118Z,8.11
2018-09-24T21:38:10.769Z,8.13
2018-09-24T21:40:44.379Z,8.15
2018-09-24T21:43:17.997Z,8.17
2018-09-24T21:45:51.720Z,8.19
2018-09-24T21:48:25.406Z,8.20
2018-09-24T21:50:59.221Z,8.19
2018-09-24T21:53:32.886Z,8.18
2018-09-24T21:56:06.715Z,8.16
2018-09-24T21:58:40.253Z,8.16
2018-09-24T22:01:13.867Z,8.16
2018-09-24T22:03:48.510Z,8.15
2018-09-24T22:06:21.995Z,8.14
2018-09-24T22:08:55.757Z,8.12
2018-09-24T22:11:29.407Z,8.08
2018-09-24T22:14:03.232Z,8.01
2018-09-24T22:16:37.099Z,7.91
2018-09-24T22:19:10.846Z,7.87
2018-09-24T22:21:44.602Z,7.84
2018-09-24T22:24:18.256Z,7.80
2018-09-24T22:26:52.066Z,7.77
2018-09-24T22:29:25.676Z,7.74
2018-09-24T22:31:59.244Z,7.71
2018-09-24T22:34:33.114Z,7.66
2018-09-24T22:37:06.677Z,7.63
2018-09-24T22:39:40.472Z,7.61
2018-09-24T22:42:14.158Z,7.59
2018-09-24T22:44:47.933Z,7.57
2018-09-24T22:47:21.786Z,7.57
2018-09-24T22:49:55.602Z,7.57
2018-09-24T22:52:29.368Z,7.62
2018-09-24T22:55:03.111Z,7.66
2018-09-24T22:57:36.888Z,7.67
2018-09-24T23:00:10.891Z,7.70
2018-09-24T23:02:44.915Z,7.66
2018-09-24T23:05:18.748Z,7.64
2018-09-24T23:07:52.422Z,7.60
2018-09-24T23:10:26.011Z,7.57
2018-09-24T23:12:59.835Z,7.53
2018-09-24T23:15:33.306Z,7.52
2018-09-24T23:18:07.175Z,7.55
2018-09-24T23:20:40.816Z,7.56
2018-09-24T23:23:14.516Z,7.58
2018-09-24T23:25:48.191Z,7.61
2018-09-24T23:28:21.756Z,7.57
2018-09-24T23:30:55.480Z,7.54
2018-09-24T23:33:29.212Z,7.53
2018-09-24T23:36:02.976Z,7.53
2018-09-24T23:38:36.642Z,7.55
2018-09-24T23:41:10.503Z,7.50
2018-09-24T23:43:44.088Z,7.47
2018-09-24T23:46:17.664Z,7.47
2018-09-24T23:48:51.415Z,7.46
2018-09-24T23:51:25.183Z,7.46
2018-09-24T23:53:58.997Z,7.43
2018-09-24T23:56:32.515Z,7.41
2018-09-24T23:59:06.105Z,7.38
